Archiv-/Tagesdaten

--Timestamp---	Temp	Chill	HIndex	Humid	Dewpt	Wind	HiWind	WindDir	Rain	Barom	        Solar	ET	UV
--------------	----	-----	------	-----	-----	----	------	-------	----	-----	        -----	--	--
20080724 00:05	13.1	13.1	13.1	83	10.2	0	0	292	0.00	1021.473	0	0.000	0
20080724 00:10	12.9	12.9	12.9	83	10.1	0	2	292	0.00	1021.439	0	0.000	0
20080724 00:15	12.8	12.8	12.8	84	10.2	0	0	292	0.00	1021.473	0	0.000	0
20080724 00:20	12.8	12.8	12.8	84	10.1	0	0	292	0.00	1021.473	0	0.000	0
20080724 00:25	12.7	12.7	12.7	84	10.0	0	0	292	0.00	1021.473	0	0.000	0
20080724 00:30	12.6	12.6	12.6	85	10.1	0	0	292	0.00	1021.507	0	0.000	0
20080724 00:35	12.5	12.5	12.5	85	10.0	0	0	292	0.00	1021.473	0	0.000	0
20080724 00:40	12.4	12.4	12.4	85	10.0	0	0	292	0.00	1021.676	0	0.000	0
20080724 00:45	12.4	12.4	12.4	86	10.1	0	0	292	0.00	1021.710	0	0.000	0
20080724 00:50	12.2	12.2	12.2	85	9.8	0	2	292	0.00	1021.778	0	0.000	0
20080724 00:55	12.0	12.0	12.0	85	9.6	0	3	292	0.00	1021.643	0	0.000	0
20080724 01:00	11.8	11.8	11.8	86	9.5	0	0	292	0.00	1021.609	0	0.000	0
20080724 01:05	11.7	11.7	11.7	86	9.4	0	0	292	0.00	1021.507	0	0.000	0
20080724 01:10	11.6	11.6	11.6	87	9.5	0	0	292	0.00	1021.338	0	0.000	0
20080724 01:15	11.7	11.7	11.7	87	9.6	0	0	292	0.00	1021.304	0	0.000	0
20080724 01:20	11.7	11.7	11.7	88	9.7	0	0	292	0.00	1021.236	0	0.000	0
20080724 01:25	11.6	11.6	11.6	87	9.5	0	0	292	0.00	1021.236	0	0.000	0
20080724 01:30	11.6	11.6	11.6	88	9.7	0	2	292	0.00	1021.134	0	0.000	0
20080724 01:35	11.6	11.6	11.6	88	9.7	0	2	292	0.00	1021.168	0	0.000	0
20080724 01:40	11.6	11.6	11.6	88	9.6	0	0	292	0.00	1021.101	0	0.000	0
20080724 01:45	11.5	11.5	11.5	88	9.6	0	2	292	0.00	1021.067	0	0.000	0
20080724 01:50	11.4	11.4	11.4	88	9.5	0	3	292	0.00	1020.999	0	0.000	0
20080724 01:55	11.4	11.4	11.4	88	9.5	0	3	292	0.00	1020.931	0	0.000	0
20080724 02:00	11.3	11.3	11.3	88	9.4	0	2	292	0.00	1020.965	0	0.000	0
20080724 02:05	11.3	11.3	11.3	88	9.4	0	3	292	0.00	1021.033	0	0.000	0
20080724 02:10	11.3	11.3	11.3	88	9.4	0	3	292	0.00	1020.965	0	0.000	0
20080724 02:15	11.2	11.2	11.2	88	9.3	0	3	292	0.00	1020.897	0	0.000	0
20080724 02:20	11.2	11.2	11.2	89	9.4	0	0	292	0.00	1020.830	0	0.000	0
20080724 02:25	11.1	11.1	11.1	89	9.4	0	2	292	0.00	1020.796	0	0.000	0
20080724 02:30	11.1	11.1	11.1	89	9.3	0	2	292	0.00	1020.830	0	0.000	0
20080724 02:35	11.0	11.0	11.0	89	9.3	0	2	292	0.00	1020.796	0	0.000	0
20080724 02:40	10.9	10.9	10.9	89	9.2	0	2	292	0.00	1020.762	0	0.000	0
20080724 02:45	10.9	10.9	10.9	89	9.1	0	0	292	0.00	1020.762	0	0.000	0
20080724 02:50	10.9	10.9	10.9	89	9.1	0	2	292	0.00	1020.762	0	0.000	0
20080724 02:55	10.8	10.8	10.8	89	9.1	0	2	292	0.00	1020.627	0	0.000	0
20080724 03:00	10.8	10.8	10.8	89	9.0	0	2	292	0.00	1020.694	0	0.000	0
20080724 03:05	10.8	10.8	10.8	90	9.2	0	3	292	0.00	1020.457	0	0.000	0
20080724 03:10	10.7	10.7	10.7	90	9.1	2	5	292	0.00	1020.390	0	0.000	0
20080724 03:15	10.7	10.7	10.7	90	9.1	2	6	292	0.00	1020.322	0	0.000	0
20080724 03:20	10.6	10.6	10.6	90	9.0	2	3	292	0.00	1020.254	0	0.000	0
20080724 03:25	10.6	10.6	10.6	90	9.0	2	6	225	0.00	1020.152	0	0.000	0
20080724 03:30	10.4	10.4	10.4	90	8.9	3	6	225	0.00	1020.085	0	0.000	0
20080724 03:35	10.3	10.3	10.3	90	8.8	2	6	225	0.00	1020.017	0	0.000	0
20080724 03:40	10.3	10.3	10.3	90	8.8	0	3	225	0.00	1020.017	0	0.000	0
20080724 03:45	10.3	10.3	10.3	90	8.8	0	2	225	0.00	1019.949	0	0.000	0
20080724 03:50	10.3	10.3	10.3	91	8.9	0	2	225	0.00	1019.882	0	0.000	0
20080724 03:55	10.3	10.3	10.3	91	8.9	0	2	225	0.00	1019.780	0	0.000	0
20080724 04:00	10.3	10.3	10.3	91	8.9	0	2	225	0.00	1019.746	0	0.000	0
20080724 04:05	10.3	10.3	10.3	91	8.9	0	3	225	0.00	1019.814	0	0.000	0
20080724 04:10	10.3	10.3	10.3	91	8.9	0	3	225	0.00	1019.848	0	0.000	0
20080724 04:15	10.3	10.3	10.3	91	8.9	0	3	225	0.00	1019.814	0	0.000	0
20080724 04:20	10.3	10.3	10.3	91	8.9	0	0	225	0.00	1019.814	0	0.000	0
20080724 04:25	10.2	10.2	10.2	90	8.7	0	3	225	0.00	1019.645	0	0.000	0
20080724 04:30	10.2	10.2	10.2	91	8.8	0	3	225	0.00	1019.678	0	0.000	0
20080724 04:35	10.2	10.2	10.2	91	8.8	0	2	225	0.00	1019.645	0	0.000	0
20080724 04:40	10.1	10.1	10.1	91	8.7	0	5	225	0.00	1019.678	0	0.000	0
20080724 04:45	10.1	10.1	10.1	91	8.7	0	3	225	0.00	1019.678	0	0.000	0
20080724 04:50	10.1	10.1	10.1	91	8.7	0	3	225	0.00	1019.611	0	0.000	0
20080724 04:55	10.1	10.1	10.1	91	8.7	2	3	225	0.00	1019.611	0	0.000	0
20080724 05:00	10.1	10.1	10.1	91	8.7	0	3	225	0.00	1019.577	0	0.000	0
20080724 05:05	10.1	10.1	10.1	91	8.7	0	0	225	0.00	1019.441	0	0.000	0
20080724 05:10	10.1	10.1	10.1	91	8.7	0	2	225	0.00	1019.441	0	0.000	0
20080724 05:15	10.1	10.1	10.1	91	8.7	0	0	225	0.00	1019.374	0	0.000	0
20080724 05:20	10.2	10.2	10.2	91	8.8	0	2	225	0.00	1019.374	0	0.000	0
20080724 05:25	10.2	10.2	10.2	91	8.8	0	3	225	0.00	1019.340	0	0.000	0
20080724 05:30	10.3	10.3	10.3	91	8.9	0	5	225	0.00	1019.272	0	0.000	0
20080724 05:35	10.3	10.3	10.3	91	8.9	0	0	225	0.00	1019.204	0	0.000	0
20080724 05:40	10.3	10.3	10.3	91	8.9	0	2	225	0.00	1019.204	0	0.000	0
20080724 05:45	10.3	10.3	10.3	91	8.9	0	2	225	0.00	1019.204	0	0.000	0
20080724 05:50	10.3	10.3	10.3	91	8.9	2	6	225	0.00	1019.238	0	0.000	0
20080724 05:55	10.3	10.3	10.3	90	8.8	2	6	225	0.00	1019.204	0	0.000	0
20080724 06:00	10.3	10.3	10.3	90	8.8	0	3	225	0.00	1019.204	1	0.000	0
20080724 06:05	10.3	10.3	10.3	90	8.8	0	3	225	0.00	1019.170	5	0.000	0
20080724 06:10	10.3	10.3	10.3	90	8.8	2	5	202	0.00	1019.170	1	0.000	0
20080724 06:15	10.3	10.3	10.3	90	8.8	2	5	202	0.00	1019.204	0	0.000	0
20080724 06:20	10.4	10.4	10.4	90	8.8	2	6	202	0.00	1019.103	2	0.000	0
20080724 06:25	10.4	10.4	10.4	90	8.9	2	6	202	0.00	1019.137	5	0.000	0
20080724 06:30	10.4	10.4	10.4	90	8.8	3	8	202	0.00	1019.137	5	0.000	0
20080724 06:35	10.4	10.4	10.4	90	8.8	2	6	202	0.00	1019.137	5	0.000	0
20080724 06:40	10.4	10.4	10.4	90	8.8	0	2	202	0.00	1019.103	6	0.000	0
20080724 06:45	10.4	10.4	10.4	90	8.9	2	8	202	0.00	1018.933	8	0.000	0
20080724 06:50	10.4	10.4	10.4	90	8.9	0	2	202	0.00	1018.933	11	0.000	0
20080724 06:55	10.6	10.6	10.6	90	9.0	0	5	202	0.00	1018.798	16	0.000	0
20080724 07:00	10.6	10.6	10.6	90	9.0	0	5	202	0.00	1018.798	19	0.000	0
20080724 07:05	10.7	10.7	10.7	90	9.1	2	5	202	0.00	1019.001	23	0.000	0
20080724 07:10	10.8	10.8	10.8	90	9.2	2	6	202	0.00	1018.933	26	0.000	0
20080724 07:15	10.8	10.8	10.8	90	9.2	3	8	202	0.00	1018.933	28	0.000	0
20080724 07:20	10.8	10.8	10.8	90	9.2	2	6	202	0.00	1018.933	29	0.000	0
20080724 07:25	10.8	10.8	10.8	90	9.3	0	2	202	0.00	1019.069	28	0.000	0
20080724 07:30	10.9	10.9	10.9	90	9.4	0	3	202	0.00	1019.103	34	0.000	0
20080724 07:35	11.0	11.0	11.0	90	9.4	2	3	202	0.00	1019.035	44	0.000	0
20080724 07:40	11.1	11.1	11.1	90	9.5	0	3	202	0.00	1019.001	59	0.000	0
20080724 07:45	11.2	11.2	11.2	91	9.8	0	0	202	0.00	1019.001	87	0.000	0
20080724 07:50	11.2	11.2	11.2	90	9.6	0	0	202	0.00	1019.001	97	0.000	0
20080724 07:55	11.4	11.4	11.4	91	10.0	0	0	202	0.00	1019.001	124	0.000	0
20080724 08:00	11.6	11.6	11.6	90	10.0	0	0	202	0.00	1018.967	161	0.020	1
20080724 08:05	11.8	11.8	11.8	90	10.2	0	0	202	0.00	1019.137	169	0.000	1
20080724 08:10	12.1	12.1	12.1	89	10.3	0	0	202	0.00	1019.035	180	0.000	1
20080724 08:15	12.2	12.2	12.2	89	10.5	0	0	202	0.00	1019.035	164	0.000	1
20080724 08:20	12.4	12.4	12.4	89	10.7	0	3	202	0.00	1018.967	170	0.000	1
20080724 08:25	12.6	12.6	12.6	88	10.6	0	2	202	0.00	1019.069	180	0.000	1
20080724 08:30	12.7	12.7	12.7	88	10.8	0	2	202	0.00	1019.035	189	0.000	1
20080724 08:35	12.9	12.9	12.9	87	10.8	0	2	202	0.00	1019.001	195	0.000	1
20080724 08:40	12.9	12.9	12.9	87	10.8	0	0	202	0.00	1019.035	206	0.000	1
20080724 08:45	13.2	13.2	13.2	86	10.9	0	2	202	0.00	1018.967	240	0.000	1
20080724 08:50	13.4	13.4	13.4	86	11.1	0	0	202	0.00	1018.967	260	0.000	1
20080724 08:55	13.7	13.7	13.7	85	11.2	0	0	202	0.00	1018.967	238	0.000	1
20080724 09:00	13.9	13.9	13.9	85	11.4	0	2	202	0.00	1018.933	212	0.080	1
20080724 09:05	14.1	14.1	14.1	83	11.2	0	0	202	0.00	1019.204	187	0.000	1
20080724 09:10	14.3	14.3	14.3	83	11.4	0	0	202	0.00	1019.069	207	0.000	1
20080724 09:15	14.5	14.5	14.5	82	11.5	0	3	202	0.00	1018.967	287	0.000	2
20080724 09:20	14.8	14.8	14.8	83	11.9	0	2	202	0.00	1018.933	292	0.000	2
20080724 09:25	15.0	15.0	15.0	82	11.9	0	3	202	0.00	1018.899	286	0.000	2
20080724 09:30	15.0	15.0	15.0	80	11.6	0	2	202	0.00	1018.933	297	0.000	2
20080724 09:35	15.2	15.2	15.2	80	11.8	0	5	202	0.00	1018.866	297	0.000	2
20080724 09:40	15.6	15.6	15.6	79	11.9	2	5	202	0.00	1018.730	307	0.000	2
20080724 09:45	15.9	15.9	15.9	77	11.9	2	5	202	0.00	1018.662	594	0.000	3
20080724 09:50	16.3	16.3	16.3	75	11.8	2	5	202	0.00	1018.595	454	0.000	3
20080724 09:55	16.5	16.5	16.5	73	11.6	2	6	202	0.00	1018.425	497	0.000	3
20080724 10:00	16.6	16.6	16.6	72	11.5	2	6	180	0.00	1018.392	352	0.140	3
20080724 10:05	16.7	16.7	16.7	72	11.6	2	5	180	0.00	1018.392	427	0.000	3
20080724 10:10	16.9	16.9	16.9	69	11.2	2	5	180	0.00	1018.188	647	0.000	4
20080724 10:15	17.1	17.1	17.1	71	11.8	2	6	180	0.00	1018.222	617	0.000	4
20080724 10:20	17.4	17.4	17.4	69	11.6	0	2	180	0.00	1018.087	625	0.000	4
20080724 10:25	17.8	17.8	17.8	66	11.3	2	6	180	0.00	1017.951	637	0.000	4
20080724 10:30	18.1	18.1	18.1	67	11.9	0	3	180	0.00	1017.884	650	0.000	4
20080724 10:35	18.5	18.5	18.5	65	11.8	0	5	180	0.00	1017.850	659	0.000	4
20080724 10:40	18.8	18.8	18.8	62	11.4	0	5	180	0.00	1017.680	657	0.000	4
20080724 10:45	18.8	18.8	18.8	60	10.8	3	8	180	0.00	1017.613	671	0.000	5
20080724 10:50	18.8	18.8	18.8	61	11.1	0	5	157	0.00	1017.613	690	0.000	5
20080724 10:55	18.8	18.8	18.8	62	11.4	0	3	157	0.00	1017.545	701	0.000	5
20080724 11:00	19.1	19.1	19.1	62	11.7	2	5	157	0.00	1017.579	710	0.280	5
20080724 11:05	19.3	19.3	19.3	61	11.6	0	3	157	0.00	1017.579	730	0.000	5
20080724 11:10	19.6	19.6	19.6	63	12.4	0	3	157	0.00	1017.477	740	0.000	5
20080724 11:15	19.8	19.8	19.8	59	11.6	2	8	157	0.00	1017.511	705	0.000	5
20080724 11:20	19.7	19.7	19.7	58	11.2	2	8	45	0.00	1017.477	712	0.000	6
20080724 11:25	19.5	19.5	19.5	58	11.0	3	10	67	0.00	1017.647	641	0.000	5
20080724 11:30	19.4	19.4	19.4	60	11.5	2	5	112	0.00	1017.579	534	0.000	5
20080724 11:35	19.3	19.3	19.3	59	11.1	3	10	45	0.00	1017.545	787	0.000	6
20080724 11:40	19.3	19.3	19.3	58	10.8	6	14	45	0.00	1017.545	556	0.000	5
20080724 11:45	19.2	19.2	19.2	59	11.0	5	10	22	0.00	1017.613	434	0.000	5
20080724 11:50	19.2	19.2	19.2	56	10.2	3	13	67	0.00	1017.613	624	0.000	5
20080724 11:55	19.3	19.3	19.3	57	10.5	5	10	45	0.00	1017.545	846	0.000	6
20080724 12:00	19.5	19.5	19.5	56	10.5	5	11	135	0.00	1017.579	673	0.300	6
20080724 12:05	19.7	19.7	19.7	56	10.6	6	11	67	0.00	1017.647	862	0.000	7
20080724 12:10	19.6	19.6	19.6	55	10.3	5	16	67	0.00	1017.579	522	0.000	5
20080724 12:15	19.3	19.3	19.3	55	10.0	6	18	22	0.00	1017.545	347	0.000	4
20080724 12:20	19.3	19.3	19.3	59	11.1	5	10	22	0.00	1017.477	512	0.000	5
20080724 12:25	19.6	19.6	19.6	57	10.9	3	8	67	0.00	1017.443	765	0.000	7
20080724 12:30	19.8	19.8	19.8	59	11.6	5	16	22	0.00	1017.308	888	0.000	8
20080724 12:35	20.2	20.2	20.2	57	11.4	6	14	45	0.00	1017.342	963	0.000	7
20080724 12:40	20.1	20.1	20.1	56	11.0	6	11	0	0.00	1017.308	430	0.000	5
20080724 12:45	19.7	19.7	19.7	56	10.6	8	14	22	0.00	1017.342	274	0.000	4
20080724 12:50	19.7	19.7	19.7	56	10.6	6	14	45	0.00	1017.274	670	0.000	6
20080724 12:55	19.7	19.7	19.7	56	10.7	3	10	22	0.00	1017.139	243	0.000	3
20080724 13:00	19.5	19.5	19.5	56	10.5	6	11	22	0.00	1017.139	318	0.280	4
20080724 13:05	19.5	19.5	19.5	56	10.5	3	6	22	0.00	1017.172	236	0.000	3
20080724 13:10	19.4	19.4	19.4	60	11.5	3	6	22	0.00	1017.172	229	0.000	3
20080724 13:15	19.4	19.4	19.4	57	10.7	3	8	22	0.00	1017.139	278	0.000	3
20080724 13:20	19.5	19.5	19.5	57	10.7	5	10	45	0.00	1017.037	395	0.000	4
20080724 13:25	19.7	19.7	19.7	58	11.2	3	10	90	0.00	1017.003	458	0.000	5
20080724 13:30	19.7	19.7	19.7	58	11.2	3	6	90	0.00	1016.800	373	0.000	5
20080724 13:35	19.9	19.9	19.9	56	10.8	3	8	67	0.00	1016.834	949	0.000	7
20080724 13:40	20.2	20.2	20.2	57	11.4	3	8	90	0.00	1016.766	1060	0.000	8
20080724 13:45	20.5	20.5	20.5	55	11.1	3	6	22	0.00	1016.664	912	0.000	7
20080724 13:50	20.6	20.6	20.6	55	11.2	2	8	45	0.00	1016.631	225	0.000	3
20080724 13:55	20.4	20.4	20.4	54	10.8	2	6	180	0.00	1016.631	148	0.000	2
20080724 14:00	20.3	20.3	20.3	52	10.1	0	2	180	0.00	1016.631	169	0.220	2
20080724 14:05	20.0	20.0	20.0	54	10.4	5	10	180	0.00	1016.766	250	0.000	2
20080724 14:10	19.8	19.8	19.8	55	10.5	8	11	22	0.00	1016.664	349	0.000	4
20080724 14:15	19.7	19.7	19.7	56	10.7	8	18	22	0.00	1016.597	414	0.000	5
20080724 14:20	20.1	20.1	20.1	54	10.5	6	11	45	0.00	1016.563	831	0.000	6
20080724 14:25	20.3	20.3	20.3	54	10.7	5	10	45	0.00	1016.326	420	0.000	5
20080724 14:30	20.3	20.3	20.3	54	10.7	3	10	0	0.00	1016.258	408	0.000	4
20080724 14:35	20.3	20.3	20.3	55	11.0	5	14	45	0.00	1016.156	592	0.000	6
20080724 14:40	20.4	20.4	20.4	52	10.2	3	8	22	0.00	1016.224	462	0.000	4
20080724 14:45	20.4	20.4	20.4	54	10.8	0	5	67	0.00	1016.258	351	0.000	4
20080724 14:50	20.4	20.4	20.4	54	10.8	3	8	67	0.00	1016.224	381	0.000	4
20080724 14:55	20.5	20.5	20.5	55	11.1	3	8	67	0.00	1016.224	398	0.000	5
20080724 15:00	20.4	20.4	20.4	52	10.2	5	10	90	0.00	1016.224	380	0.240	5
20080724 15:05	20.4	20.4	20.4	52	10.2	3	8	67	0.00	1016.156	349	0.000	4
20080724 15:10	20.5	20.5	20.5	54	10.9	2	5	67	0.00	1016.089	382	0.000	5
20080724 15:15	20.6	20.6	20.6	54	10.9	3	6	45	0.00	1016.089	317	0.000	3
20080724 15:20	20.7	20.7	20.7	54	11.0	2	5	135	0.00	1016.021	295	0.000	3
20080724 15:25	20.6	20.6	20.6	53	10.6	6	11	45	0.00	1015.953	286	0.000	3
20080724 15:30	20.4	20.4	20.4	52	10.2	5	10	45	0.00	1015.919	282	0.000	4
20080724 15:35	20.5	20.5	20.5	53	10.6	6	10	22	0.00	1015.953	622	0.000	5
20080724 15:40	20.7	20.7	20.7	51	10.2	3	8	22	0.00	1015.953	552	0.000	5
20080724 15:45	21.2	21.2	21.2	51	10.6	3	10	135	0.00	1015.818	861	0.000	5
20080724 15:50	21.5	21.5	21.5	49	10.3	3	10	22	0.00	1015.818	572	0.000	4
20080724 15:55	21.3	21.3	21.3	50	10.5	5	8	22	0.00	1015.818	360	0.000	3
20080724 16:00	21.3	21.3	21.3	51	10.7	3	6	67	0.00	1015.818	371	0.240	3
20080724 16:05	21.3	21.3	21.3	51	10.8	3	11	22	0.00	1015.852	341	0.000	3
20080724 16:10	21.2	21.2	21.2	52	11.0	5	11	22	0.00	1015.750	316	0.000	3
20080724 16:15	21.2	21.2	21.2	52	11.0	5	14	45	0.00	1015.682	305	0.000	3
20080724 16:20	21.1	21.1	21.1	52	10.8	6	14	67	0.00	1015.818	347	0.000	3
20080724 16:25	21.3	21.3	21.3	52	11.0	2	8	90	0.00	1015.682	415	0.000	3
20080724 16:30	21.3	21.3	21.3	52	11.1	5	14	135	0.00	1015.750	269	0.000	2
20080724 16:35	21.1	21.1	21.1	51	10.6	6	11	67	0.00	1015.818	238	0.000	2
20080724 16:40	20.8	20.8	20.8	52	10.6	6	14	45	0.00	1015.852	229	0.000	2
20080724 16:45	20.6	20.6	20.6	53	10.7	5	13	67	0.00	1015.987	220	0.000	2
20080724 16:50	20.4	20.4	20.4	56	11.4	8	16	45	0.00	1015.987	240	0.000	2
20080724 16:55	20.4	20.4	20.4	58	11.8	8	14	67	0.00	1015.886	279	0.000	2
20080724 17:00	20.3	20.3	20.3	57	11.5	8	16	45	0.00	1015.886	293	0.180	2
20080724 17:05	20.3	20.3	20.3	56	11.3	6	14	45	0.00	1015.818	282	0.000	2
20080724 17:10	20.4	20.4	20.4	57	11.6	6	11	45	0.00	1015.784	237	0.000	2
20080724 17:15	20.3	20.3	20.3	57	11.5	6	16	22	0.00	1015.784	223	0.000	2
20080724 17:20	20.2	20.2	20.2	58	11.6	6	13	22	0.00	1015.919	213	0.000	1
20080724 17:25	20.1	20.1	20.1	59	11.8	8	14	67	0.00	1016.021	188	0.000	1
20080724 17:30	20.0	20.0	20.0	60	12.0	6	14	67	0.00	1016.021	179	0.000	1
20080724 17:35	19.8	19.8	19.8	60	11.8	10	21	45	0.00	1016.089	166	0.000	1
20080724 17:40	19.4	19.4	19.4	62	11.9	10	19	45	0.00	1016.190	138	0.000	1
20080724 17:45	19.2	19.2	19.2	62	11.8	10	18	45	0.00	1015.987	135	0.000	1
20080724 17:50	19.1	19.1	19.1	62	11.6	10	14	45	0.00	1016.089	142	0.000	1
20080724 17:55	18.9	18.9	18.9	62	11.5	10	14	45	0.00	1015.987	147	0.000	1
20080724 18:00	18.9	18.9	18.9	63	11.7	8	16	45	0.00	1016.055	154	0.120	1
20080724 18:05	18.9	18.9	18.9	63	11.7	8	16	45	0.00	1016.021	179	0.000	1
20080724 18:10	19.1	19.1	19.1	62	11.6	10	16	67	0.00	1015.987	355	0.000	1
20080724 18:15	19.3	19.3	19.3	60	11.4	10	18	45	0.00	1015.987	299	0.000	1
20080724 18:20	19.3	19.3	19.3	61	11.6	6	11	45	0.00	1015.919	175	0.000	1
20080724 18:25	19.1	19.1	19.1	62	11.6	10	19	45	0.00	1016.055	150	0.000	1
20080724 18:30	18.9	18.9	18.9	63	11.7	8	16	67	0.00	1016.055	190	0.000	1
20080724 18:35	19.0	19.0	19.0	64	12.0	6	13	67	0.00	1016.089	172	0.000	1
20080724 18:40	18.9	18.9	18.9	64	12.0	6	11	45	0.00	1015.987	125	0.000	1
20080724 18:45	18.9	18.9	18.9	64	11.9	5	10	67	0.00	1015.987	125	0.000	1
20080724 18:50	18.8	18.8	18.8	63	11.6	3	6	90	0.00	1015.953	108	0.000	0
20080724 18:55	18.8	18.8	18.8	64	11.9	3	10	90	0.00	1015.987	93	0.000	0
20080724 19:00	18.8	18.8	18.8	64	11.8	6	10	45	0.00	1016.055	98	0.100	0
20080724 19:05	18.8	18.8	18.8	65	12.1	5	11	45	0.00	1015.886	194	0.000	0
20080724 19:10	18.9	18.9	18.9	63	11.7	6	11	67	0.00	1015.919	135	0.000	0
20080724 19:15	18.8	18.8	18.8	63	11.6	5	16	67	0.00	1015.919	114	0.000	0
20080724 19:20	18.8	18.8	18.8	64	11.8	6	13	45	0.00	1015.886	98	0.000	0
20080724 19:25	18.7	18.7	18.7	65	11.9	8	14	45	0.00	1015.886	82	0.000	0
20080724 19:30	18.4	18.4	18.4	66	12.0	8	18	67	0.00	1015.919	63	0.000	0
20080724 19:35	18.2	18.2	18.2	67	11.9	11	23	45	0.00	1015.919	57	0.000	0
20080724 19:40	17.8	17.8	17.8	68	11.8	11	23	67	0.00	1016.055	72	0.000	0
20080724 19:45	17.5	17.5	17.5	69	11.7	11	18	45	0.00	1016.021	87	0.000	0
20080724 19:50	17.4	17.4	17.4	70	11.9	10	18	45	0.00	1016.089	65	0.000	0
20080724 19:55	17.2	17.2	17.2	70	11.7	10	16	45	0.00	1016.089	51	0.000	0
20080724 20:00	17.1	17.1	17.1	70	11.5	8	14	45	0.00	1016.055	42	0.080	0
20080724 20:05	17.0	17.0	17.0	71	11.7	6	11	67	0.00	1015.784	37	0.000	0
20080724 20:10	16.9	16.9	16.9	70	11.4	6	11	67	0.00	1015.886	27	0.000	0
20080724 20:15	16.9	16.9	16.9	71	11.6	6	11	67	0.00	1015.919	26	0.000	0
20080724 20:20	16.9	16.9	16.9	71	11.6	6	11	67	0.00	1015.886	20	0.000	0
20080724 20:25	16.9	16.9	16.9	71	11.6	6	10	67	0.00	1016.021	14	0.000	0
20080724 20:30	16.8	16.8	16.8	71	11.5	5	10	67	0.00	1015.953	12	0.000	0
20080724 20:35	16.7	16.7	16.7	70	11.2	5	10	67	0.00	1015.953	12	0.000	0
20080724 20:40	16.7	16.7	16.7	71	11.4	5	8	45	0.00	1015.987	10	0.000	0
20080724 20:45	16.6	16.6	16.6	72	11.5	5	8	45	0.00	1015.987	7	0.000	0
20080724 20:50	16.5	16.5	16.5	71	11.2	5	8	45	0.00	1015.953	6	0.000	0
20080724 20:55	16.4	16.4	16.4	72	11.4	5	10	45	0.00	1015.919	1	0.000	0
20080724 21:00	16.4	16.4	16.4	72	11.3	6	10	45	0.00	1015.818	0	0.020	0
20080724 21:05	16.3	16.3	16.3	73	11.5	5	8	45	0.00	1015.649	0	0.000	0
20080724 21:10	16.3	16.3	16.3	73	11.4	5	8	45	0.00	1015.682	0	0.000	0
20080724 21:15	16.2	16.2	16.2	73	11.4	3	6	67	0.00	1015.750	0	0.000	0
20080724 21:20	16.2	16.2	16.2	74	11.5	5	6	45	0.00	1015.852	0	0.000	0
20080724 21:25	16.1	16.1	16.1	74	11.5	3	8	45	0.00	1015.818	0	0.000	0
20080724 21:30	16.1	16.1	16.1	75	11.6	3	6	45	0.00	1015.784	0	0.000	0
20080724 21:35	16.0	16.0	16.0	75	11.6	2	6	67	0.00	1015.750	0	0.000	0
20080724 21:40	15.9	15.9	15.9	75	11.5	3	5	67	0.00	1015.818	0	0.000	0
20080724 21:45	15.8	15.8	15.8	76	11.6	2	5	67	0.00	1015.818	0	0.000	0
20080724 21:50	15.8	15.8	15.8	76	11.6	2	5	67	0.00	1015.716	0	0.000	0
20080724 21:55	15.7	15.7	15.7	77	11.6	2	5	67	0.00	1015.750	0	0.000	0
20080724 22:00	15.6	15.6	15.6	78	11.7	0	3	67	0.00	1015.716	0	0.020	0
20080724 22:05	15.4	15.4	15.4	78	11.6	2	3	67	0.00	1015.445	0	0.000	0
20080724 22:10	15.2	15.2	15.2	79	11.6	0	2	67	0.00	1015.445	0	0.000	0
20080724 22:15	15.0	15.0	15.0	80	11.6	2	5	67	0.00	1015.581	0	0.000	0
20080724 22:20	15.0	15.0	15.0	80	11.6	2	5	67	0.00	1015.547	0	0.000	0
20080724 22:25	14.8	14.8	14.8	81	11.5	2	5	67	0.00	1015.479	0	0.000	0
20080724 22:30	14.6	14.6	14.6	81	11.4	0	3	67	0.00	1015.411	0	0.000	0
20080724 22:35	14.5	14.5	14.5	82	11.5	0	3	67	0.00	1015.378	0	0.000	0
20080724 22:40	14.3	14.3	14.3	82	11.3	0	3	67	0.00	1015.411	0	0.000	0
20080724 22:45	14.2	14.2	14.2	83	11.4	0	3	67	0.00	1015.378	0	0.000	0
20080724 22:50	14.2	14.2	14.2	83	11.3	0	2	67	0.00	1015.581	0	0.000	0
20080724 22:55	14.1	14.1	14.1	83	11.2	0	3	67	0.00	1015.682	0	0.000	0
20080724 23:00	14.1	14.1	14.1	84	11.4	0	2	67	0.00	1015.581	0	0.020	0
20080724 23:05	14.0	14.0	14.0	84	11.3	0	3	67	0.00	1015.547	0	0.000	0
20080724 23:10	13.9	13.9	13.9	84	11.3	0	2	67	0.00	1015.411	0	0.000	0
20080724 23:15	13.9	13.9	13.9	84	11.3	0	2	67	0.00	1015.411	0	0.000	0
20080724 23:20	13.9	13.9	13.9	84	11.3	0	3	67	0.00	1015.310	0	0.000	0
20080724 23:25	13.9	13.9	13.9	85	11.5	2	5	67	0.00	1015.276	0	0.000	0
20080724 23:30	13.9	13.9	13.9	85	11.5	0	5	90	0.00	1015.242	0	0.000	0
20080724 23:35	13.9	13.9	13.9	85	11.5	2	3	112	0.00	1015.174	0	0.000	0
20080724 23:40	13.9	13.9	13.9	85	11.5	0	5	135	0.00	1015.208	0	0.000	0
20080724 23:45	13.9	13.9	13.9	85	11.5	0	3	135	0.00	1015.242	0	0.000	0
20080724 23:50	13.9	13.9	13.9	85	11.4	0	3	135	0.00	1015.242	0	0.000	0
20080724 23:55	13.9	13.9	13.9	85	11.4	0	2	135	0.00	1015.174	0	0.000	0
20080724 24:00	13.8	13.8	13.8	86	11.5	0	0	135	0.00	1015.141	0	0.000	0



Please note the license to use and transfer of this data:
http://creativecommons.org/licenses/by-nc-sa/3.0/deed.en

Bitte beachten sie die Lizenz zur Verwertung und Weitergabe der Daten:
http://creativecommons.org/licenses/by-nc-sa/3.0/deed.de

zurück zur Übersicht der Archivdaten (Monats und Tagesdaten)

Cookies helfen bei der Bereitstellung von Inhalten. Durch die Nutzung dieser Seiten erklärst du dich damit einverstanden, dass Cookies auf deinem Rechner gespeichert werden. Weitere Information